Latest Coastal Weather Observations for Eucla

IDW60701

Issued at 11:45 pm WST Tuesday 22 July 2014 (issued every 10 minutes, with the page automatically refreshed every 10 minutes)

About coastal observations | Map of coastal stations | Coastal observations for WA | Marine services | Other Formats
Station Details ID: 011003 Name: EUCLA Lat: -31.68 Lon: 128.90 Height: 93.1 m
Data from the previous 72 hours. | See also: Recent months at Eucla
Date/Time
WST
Temp

°C
Wind Pressure Rain
since 9am
mm
Weather Cloud Vis
km
Sea
Height
m
Swell
Dir
 
Speed
knots
Gust
knots
hPa Trend Height
m
Period
s
Dir
22/11:30pm 11.7 NNE 7 13 1009.3 - 5.8 - - - - - - -
22/11:00pm 11.6 NNE 5 10 1010.0 - 5.6 - - - - - - -
22/10:30pm 11.6 NE 7 10 1010.7 - 5.2 - - - - - - -
22/10:00pm 11.7 ENE 7 9 1011.3 - 4.4 - - - - - - -
22/09:30pm 11.8 ENE 6 9 1012.0 - 4.2 - - - - - - -
22/09:00pm 11.7 SW 5 6 1012.6 - 3.4 Rain - - - - - -
22/08:30pm 11.7 SW 1 5 1013.1 - 2.2 - - - - - - -
22/08:00pm 11.7 CALM 0 0 1013.6 - 1.0 - - - - - - -
22/07:30pm 11.8 CALM 0 0 1013.5 - 0.2 - - - - - - -
22/07:00pm 11.8 CALM 0 0 1013.3 - 0.2 - - - - - - -
22/06:30pm 11.9 CALM 0 0 1013.6 - 0.2 - - - - - - -
22/06:00pm 12.1 NNW 1 3 1013.6 - 0.2 Recent precip. - - - - - -
22/05:30pm 12.9 NW 4 5 1013.6 - 0.2 - - - - - - -
22/05:00pm 14.0 NNW 7 10 1013.9 - 0.0 - - - - - - -
22/04:30pm 14.6 NNW 10 19 1013.9 - 0.0 - - - - - - -
22/04:00pm 17.5 N 12 22 1013.7 - 0.0 - - - - - - -
22/03:30pm 18.3 N 7 12 1013.7 - 0.0 - - - - - - -
22/03:00pm 19.1 N 8 13 1013.8 - 0.0 - - - - - - -
22/02:30pm 19.7 N 6 9 1013.3 - 0.0 - - - - - - -
22/02:00pm 19.9 N 8 14 1013.8 - 0.0 - - - - - - -
22/01:30pm 19.8 N 9 13 1014.4 - 0.0 - - - - - - -
22/01:00pm 20.0 N 8 12 1014.7 - 0.0 - - - - - - -
22/12:30pm 20.0 N 8 13 1014.8 - 0.0 - - - - - - -
22/12:00pm 19.7 N 8 12 1015.6 - 0.0 - - - - - - -
22/11:30am 19.3 N 9 13 1016.3 - 0.0 - - - - - - -
22/11:00am 19.1 N 8 12 1016.9 - 0.0 - - - - - - -
22/10:30am 18.8 NE 7 9 1016.3 - 0.0 - - - - - - -
22/10:00am 18.2 NNE 6 10 1017.3 - 0.0 - - - - - - -
22/09:30am 17.8 NNE 7 10 1018.2 - 0.0 - - - - - - -
22/09:00am 17.5 N 7 9 1018.2 - 0.0 - - - - - - -
22/08:30am 14.6 N 6 8 1018.1 - 0.0 - - - - - - -
22/08:00am 11.4 N 6 7 1018.6 - 0.0 - - - - - - -
22/07:30am 8.8 N 7 9 1018.7 - 0.0 - - - - - - -
22/07:00am 6.1 N 7 9 1018.9 - 0.0 - - - - - - -
22/06:30am 5.3 N 7 8 1018.6 - 0.0 - - - - - - -
22/06:00am 4.8 N 7 8 1018.3 - 0.0 - - - - - - -
22/05:30am 4.7 N 6 8 1018.0 - 0.0 - - - - - - -
22/05:00am 4.9 N 7 8 1018.1 - 0.0 - - - - - - -
22/04:30am 5.2 N 7 8 1017.9 - 0.0 - - - - - - -
22/04:00am 5.6 N 7 8 1018.0 - 0.0 - - - - - - -
22/03:30am 5.8 N 6 7 1017.9 - 0.0 - - - - - - -
22/03:00am 6.4 N 6 7 1018.0 - 0.0 - - - - - - -
22/02:30am 6.7 N 6 7 1018.0 - 0.0 - - - - - - -
22/02:00am 6.5 N 6 7 1018.1 - 0.0 - - - - - - -
22/01:30am 6.7 N 6 8 1018.0 - 0.0 - - - - - - -
22/01:00am 6.9 N 6 7 1017.9 - 0.0 - - - - - - -
22/12:30am 7.5 NNE 7 8 1017.8 - 0.0 - - - - - - -
22/12:00am 7.5 N 6 7 1018.0 - 0.0 - - - - - - -
 
Date/Time
WST
Temp

°C
Wind Pressure Rain
since 9am
mm
Weather Cloud Vis
km
Sea
Height
m
Swell
Dir
 
Speed
knots
Gust
knots
hPa Trend Height
m
Period
s
Dir
21/11:30pm 8.0 NNE 6 7 1018.2 - 0.0 - - - - - - -
21/11:00pm 8.6 NNE 6 7 1018.4 - 0.0 - - - - - - -
21/10:30pm 8.7 NNE 6 6 1018.4 - 0.0 - - - - - - -
21/10:00pm 9.1 ESE 1 4 1018.7 - 0.0 - - - - - - -
21/09:30pm 9.4 NNE 4 6 1018.9 - 0.0 - - - - - - -
21/09:00pm 9.0 NE 4 6 1019.0 - 0.0 - - - - - - -
21/08:30pm 9.7 CALM 0 0 1018.8 - 0.0 - - - - - - -
21/08:00pm 11.6 N 1 3 1018.9 - 0.0 - - - - - - -
21/07:30pm 12.6 N 7 8 1018.8 - 0.0 - - - - - - -
21/07:00pm 12.5 NNE 5 6 1018.7 - 0.0 - - - - - - -
21/06:30pm 13.3 NNE 3 4 1018.2 - 0.0 - - - - - - -
21/06:00pm 14.5 ENE 5 7 1017.9 - 0.0 - - - - - - -
21/05:30pm 14.9 E 5 7 1017.3 - 0.0 - - - - - - -
21/05:00pm 15.3 ESE 5 6 1017.2 - 0.0 - - - - - - -
21/04:30pm 15.5 E 6 8 1016.8 - 0.0 - - - - - - -
21/04:00pm 15.8 ESE 6 9 1016.7 - 0.0 - - - - - - -
21/03:30pm 16.3 ESE 6 9 1016.6 - 0.0 - - - - - - -
21/03:00pm 16.7 ESE 7 9 1016.6 - 0.0 Fine Mostly cloudy 40 - - - -
21/02:30pm 16.9 SSE 7 9 1016.4 - 0.0 - - - - - - -
21/02:00pm 17.6 SSE 6 8 1016.5 - 0.0 - - - - - - -
21/01:30pm 19.2 ESE 5 8 1016.3 - 0.0 - - - - - - -
21/01:00pm 20.1 SSE 5 8 1016.2 - 0.0 - - - - - - -
21/12:30pm 21.2 NW 4 8 1016.3 - 0.0 - - - - - - -
21/12:00pm 21.0 WNW 5 9 1016.5 - 0.0 - - - - - - -
21/11:30am 20.3 WNW 5 9 1016.8 - 0.0 - - - - - - -
21/11:00am 19.8 WNW 5 9 1017.3 - 0.0 - - - - - - -
21/10:30am 19.2 W 7 10 1017.5 - 0.0 - - - - - - -
21/10:00am 18.5 NW 7 10 1017.8 - 0.0 - - - - - - -
21/09:30am 17.3 NW 7 10 1017.8 - 0.0 - - - - - - -
21/09:00am 16.2 NNW 9 11 1017.8 - 0.0 Fine Mostly clear 40 - - - -
21/08:30am 14.6 NNW 9 11 1017.4 - 0.0 - - - - - - -
21/08:00am 12.3 NNW 9 13 1017.3 - 0.0 - - - - - - -
21/07:30am 9.8 NNW 8 11 1017.1 - 0.0 - - - - - - -
21/07:00am 8.4 NNW 7 9 1016.7 - 0.0 - - - - - - -
21/06:30am 7.9 N 7 8 1016.3 - 0.0 - - - - - - -
21/06:00am 8.5 NNW 7 9 1015.8 - 0.0 - - - - - - -
21/05:30am 9.3 NNW 8 10 1015.6 - 0.0 - - - - - - -
21/05:00am 8.6 NNW 7 9 1015.2 - 0.0 - - - - - - -
21/04:30am 8.7 NNW 7 8 1015.0 - 0.0 - - - - - - -
21/04:00am 8.7 N 7 8 1014.9 - 0.0 - - - - - - -
21/03:30am 9.3 N 7 9 1014.8 - 0.0 - - - - - - -
21/03:00am 9.9 N 7 9 1014.6 - 0.0 - - - - - - -
21/02:30am 9.7 N 5 9 1014.8 - 0.0 - - - - - - -
21/02:00am 10.3 N 5 6 1014.9 - 0.0 - - - - - - -
21/01:30am 10.9 NNW 5 7 1015.0 - 0.0 - - - - - - -
21/01:00am 11.8 NNW 8 9 1015.1 - 0.0 - - - - - - -
21/12:30am 12.3 N 10 15 1015.2 - 0.0 - - - - - - -
21/12:00am 11.3 N 8 11 1015.2 - 0.0 - - - - - - -
 
Date/Time
WST
Temp

°C
Wind Pressure Rain
since 9am
mm
Weather Cloud Vis
km
Sea
Height
m
Swell
Dir
 
Speed
knots
Gust
knots
hPa Trend Height
m
Period
s
Dir
20/11:30pm 11.3 N 8 11 1014.9 - 0.0 - - - - - - -
20/11:00pm 11.5 NNE 8 9 1015.2 - 0.0 - - - - - - -
20/10:30pm 11.9 NNE 8 10 1015.7 - 0.0 - - - - - - -
20/10:00pm 12.3 NNE 8 12 1015.8 - 0.0 - - - - - - -
20/09:30pm 12.8 NNE 8 11 1015.9 - 0.0 - - - - - - -
20/09:00pm 13.2 NNE 8 11 1015.8 - 0.0 - - - - - - -
20/08:30pm 13.1 NNE 8 10 1015.8 - 0.0 - - - - - - -
20/08:00pm 13.1 NE 8 10 1015.7 - 0.0 - - - - - - -
20/07:30pm 13.2 NE 8 11 1015.7 - 0.0 - - - - - - -
20/07:00pm 13.6 NE 7 10 1015.6 - 0.0 - - - - - - -
20/06:30pm 14.1 ENE 7 10 1015.4 - 0.0 - - - - - - -
20/06:00pm 14.9 ENE 7 9 1015.2 - 0.0 - - - - - - -
20/05:30pm 15.2 NE 6 8 1015.1 - 0.0 - - - - - - -
20/05:00pm 16.2 ENE 6 7 1015.0 - 0.0 - - - - - - -
20/04:30pm 17.4 NE 5 7 1015.0 - 0.0 - - - - - - -
20/04:00pm 18.6 NNE 7 11 1014.9 - 0.0 - - - - - - -
20/03:30pm 18.8 NE 9 15 1014.9 - 0.0 - - - - - - -
20/03:00pm 18.9 NNE 8 12 1014.8 - 0.0 Fine Partly cloudy 40 - - - -
20/02:30pm 18.6 NNE 8 12 1014.8 - 0.0 - - - - - - -
20/02:00pm 19.1 N 9 13 1014.7 - 0.0 - - - - - - -
20/01:30pm 19.6 NNE 7 10 1015.0 - 0.0 - - - - - - -
20/01:00pm 20.1 NE 6 9 1015.0 - 0.0 - - - - - - -
20/12:30pm 19.7 N 7 10 1015.5 - 0.0 - - - - - - -
20/12:00pm 19.7 N 9 14 1016.2 - 0.0 - - - - - - -
20/11:30am 18.5 N 8 10 1016.7 - 0.0 - - - - - - -
20/11:00am 20.0 N 9 13 1017.4 - 0.0 - - - - - - -
20/10:30am 19.0 N 11 17 1017.7 - 0.0 - - - - - - -
20/10:00am 17.5 N 11 17 1018.3 - 0.0 - - - - - - -
20/09:30am 14.5 N 8 12 1018.7 - 0.0 - - - - - - -
20/09:00am 13.3 N 10 14 1018.9 - 0.0 Fine Mostly cloudy 40 - - - -
20/08:30am 12.5 N 10 15 1019.1 - 0.0 - - - - - - -
20/08:00am 12.1 N 10 14 1019.0 - 0.0 - - - - - - -
20/07:30am 11.3 N 11 15 1018.8 - 0.0 - - - - - - -
20/07:00am 10.8 N 11 16 1018.8 - 0.0 - - - - - - -
20/06:30am 10.4 N 11 14 1018.8 - 0.0 - - - - - - -
20/06:00am 10.3 N 10 15 1018.8 - 0.0 - - - - - - -
20/05:30am 10.5 N 11 15 1018.5 - 0.0 - - - - - - -
20/05:00am 10.4 N 10 14 1018.4 - 0.0 - - - - - - -
20/04:30am 10.2 N 9 13 1018.3 - 0.0 - - - - - - -
20/04:00am 10.0 N 9 14 1018.4 - 0.0 - - - - - - -
20/03:30am 10.2 N 10 13 1018.6 - 0.0 - - - - - - -
20/03:00am 10.4 NNE 10 14 1018.9 - 0.0 - - - - - - -
20/02:30am 10.6 NNE 11 15 1018.8 - 0.0 - - - - - - -
20/02:00am 10.7 NNE 11 16 1019.2 - 0.0 - - - - - - -
20/01:30am 10.7 NNE 11 16 1019.2 - 0.0 - - - - - - -
20/01:00am 11.2 NNE 10 16 1019.5 - 0.0 - - - - - - -
20/12:30am 11.4 NNE 10 14 1019.9 - 0.0 - - - - - - -
20/12:00am 11.5 NE 9 13 1020.2 - 0.0 - - - - - - -

Other Formats:

Comma delimited format used in spreadsheet applications
http://www.bom.gov.au/fwo/IDW60701/IDW60701.94647.axf

JavaScript Object Notation format (JSON) in row-major order
http://www.bom.gov.au/fwo/IDW60701/IDW60701.94647.json